sensor_id;sensor_type;location;lat;lon;timestamp;P1;P2;P0
55549;PMS7003;41397;49.972;18.944;2024-02-21T00:01:34;31;29;19
55549;PMS7003;41397;49.972;18.944;2024-02-21T00:04:35;26;24;16
55549;PMS7003;41397;49.972;18.944;2024-02-21T00:07:38;27;26;17
55549;PMS7003;41397;49.972;18.944;2024-02-21T00:10:42;30;27;16
55549;PMS7003;41397;49.972;18.944;2024-02-21T00:13:43;25;24;14
55549;PMS7003;41397;49.972;18.944;2024-02-21T00:16:44;23;22;16
55549;PMS7003;41397;49.972;18.944;2024-02-21T00:19:45;26;22;14
55549;PMS7003;41397;49.972;18.944;2024-02-21T00:22:46;27;23;16
55549;PMS7003;41397;49.972;18.944;2024-02-21T00:25:51;20;20;15
55549;PMS7003;41397;49.972;18.944;2024-02-21T00:28:52;29;24;16
55549;PMS7003;41397;49.972;18.944;2024-02-21T00:31:54;22;20;13
55549;PMS7003;41397;49.972;18.944;2024-02-21T00:34:55;21;20;13
55549;PMS7003;41397;49.972;18.944;2024-02-21T00:37:59;35;25;14
55549;PMS7003;41397;49.972;18.944;2024-02-21T00:41:00;33;29;19
55549;PMS7003;41397;49.972;18.944;2024-02-21T00:44:01;32;22;11
55549;PMS7003;41397;49.972;18.944;2024-02-21T00:47:02;31;25;15
55549;PMS7003;41397;49.972;18.944;2024-02-21T00:50:07;18;18;13
55549;PMS7003;41397;49.972;18.944;2024-02-21T00:53:10;9;9;7
55549;PMS7003;41397;49.972;18.944;2024-02-21T00:56:11;10;10;8
55549;PMS7003;41397;49.972;18.944;2024-02-21T00:59:12;10;10;8
55549;PMS7003;41397;49.972;18.944;2024-02-21T01:02:15;16;11;9
55549;PMS7003;41397;49.972;18.944;2024-02-21T01:05:16;13;13;9
55549;PMS7003;41397;49.972;18.944;2024-02-21T01:08:17;11;11;9
55549;PMS7003;41397;49.972;18.944;2024-02-21T01:11:19;12;12;8
55549;PMS7003;41397;49.972;18.944;2024-02-21T01:14:23;16;16;10
55549;PMS7003;41397;49.972;18.944;2024-02-21T01:17:24;16;16;9
55549;PMS7003;41397;49.972;18.944;2024-02-21T01:20:25;25;24;16
55549;PMS7003;41397;49.972;18.944;2024-02-21T01:23:26;28;24;15
55549;PMS7003;41397;49.972;18.944;2024-02-21T01:26:31;17;16;10
55549;PMS7003;41397;49.972;18.944;2024-02-21T01:29:32;20;20;16
55549;PMS7003;41397;49.972;18.944;2024-02-21T01:32:33;18;18;11
55549;PMS7003;41397;49.972;18.944;2024-02-21T01:35:34;21;21;15
55549;PMS7003;41397;49.972;18.944;2024-02-21T01:38:39;24;24;13
55549;PMS7003;41397;49.972;18.944;2024-02-21T01:41:40;24;23;15
55549;PMS7003;41397;49.972;18.944;2024-02-21T01:44:41;25;23;16
55549;PMS7003;41397;49.972;18.944;2024-02-21T01:47:42;13;13;9
55549;PMS7003;41397;49.972;18.944;2024-02-21T01:50:47;20;20;16
55549;PMS7003;41397;49.972;18.944;2024-02-21T01:53:50;21;20;11
55549;PMS7003;41397;49.972;18.944;2024-02-21T01:56:52;23;22;15
55549;PMS7003;41397;49.972;18.944;2024-02-21T01:59:54;20;20;14
55549;PMS7003;41397;49.972;18.944;2024-02-21T02:02:55;20;20;11
55549;PMS7003;41397;49.972;18.944;2024-02-21T02:05:57;19;19;15
55549;PMS7003;41397;49.972;18.944;2024-02-21T02:08:58;19;18;12
55549;PMS7003;41397;49.972;18.944;2024-02-21T02:12:00;13;13;11
55549;PMS7003;41397;49.972;18.944;2024-02-21T02:15:03;8;8;6
55549;PMS7003;41397;49.972;18.944;2024-02-21T02:18:05;14;14;11
55549;PMS7003;41397;49.972;18.944;2024-02-21T02:21:08;12;12;9
55549;PMS7003;41397;49.972;18.944;2024-02-21T02:24:14;10;10;9
55549;PMS7003;41397;49.972;18.944;2024-02-21T02:27:16;9;9;6
55549;PMS7003;41397;49.972;18.944;2024-02-21T02:30:17;10;10;6
55549;PMS7003;41397;49.972;18.944;2024-02-21T02:33:18;11;11;9
55549;PMS7003;41397;49.972;18.944;2024-02-21T02:36:20;19;18;8
55549;PMS7003;41397;49.972;18.944;2024-02-21T02:39:21;15;15;6
55549;PMS7003;41397;49.972;18.944;2024-02-21T02:42:22;13;13;7
55549;PMS7003;41397;49.972;18.944;2024-02-21T02:45:23;10;10;7
55549;PMS7003;41397;49.972;18.944;2024-02-21T02:48:27;8;8;6
55549;PMS7003;41397;49.972;18.944;2024-02-21T02:51:28;11;11;7
55549;PMS7003;41397;49.972;18.944;2024-02-21T02:54:29;8;8;5
55549;PMS7003;41397;49.972;18.944;2024-02-21T02:57:30;8;8;5
55549;PMS7003;41397;49.972;18.944;2024-02-21T03:00:31;1;1;0
55549;PMS7003;41397;49.972;18.944;2024-02-21T03:03:36;10;10;5
55549;PMS7003;41397;49.972;18.944;2024-02-21T03:06:38;7;7;6
55549;PMS7003;41397;49.972;18.944;2024-02-21T03:09:39;8;8;6
55549;PMS7003;41397;49.972;18.944;2024-02-21T03:12:40;8;8;4
55549;PMS7003;41397;49.972;18.944;2024-02-21T03:15:43;8;8;6
55549;PMS7003;41397;49.972;18.944;2024-02-21T03:18:44;12;12;7
55549;PMS7003;41397;49.972;18.944;2024-02-21T03:21:45;8;7;5
55549;PMS7003;41397;49.972;18.944;2024-02-21T03:24:47;11;11;8
55549;PMS7003;41397;49.972;18.944;2024-02-21T03:27:51;9;9;8
55549;PMS7003;41397;49.972;18.944;2024-02-21T03:30:52;13;12;10
55549;PMS7003;41397;49.972;18.944;2024-02-21T03:33:53;15;15;12
55549;PMS7003;41397;49.972;18.944;2024-02-21T03:36:54;16;16;11
55549;PMS7003;41397;49.972;18.944;2024-02-21T03:39:59;24;24;15
55549;PMS7003;41397;49.972;18.944;2024-02-21T03:43:00;20;20;14
55549;PMS7003;41397;49.972;18.944;2024-02-21T03:46:01;18;18;13
55549;PMS7003;41397;49.972;18.944;2024-02-21T03:49:02;17;17;11
55549;PMS7003;41397;49.972;18.944;2024-02-21T03:52:07;10;10;9
55549;PMS7003;41397;49.972;18.944;2024-02-21T03:55:09;16;15;10
55549;PMS7003;41397;49.972;18.944;2024-02-21T03:58:10;16;16;13
55549;PMS7003;41397;49.972;18.944;2024-02-21T04:01:11;12;12;10
55549;PMS7003;41397;49.972;18.944;2024-02-21T04:04:15;18;18;13
55549;PMS7003;41397;49.972;18.944;2024-02-21T04:07:16;16;16;11
55549;PMS7003;41397;49.972;18.944;2024-02-21T04:10:17;15;15;11
55549;PMS7003;41397;49.972;18.944;2024-02-21T04:13:18;13;13;12
55549;PMS7003;41397;49.972;18.944;2024-02-21T04:16:23;16;14;8
55549;PMS7003;41397;49.972;18.944;2024-02-21T04:19:24;13;12;10
55549;PMS7003;41397;49.972;18.944;2024-02-21T04:22:26;19;19;14
55549;PMS7003;41397;49.972;18.944;2024-02-21T04:25:27;21;21;15
55549;PMS7003;41397;49.972;18.944;2024-02-21T04:28:31;26;22;14
55549;PMS7003;41397;49.972;18.944;2024-02-21T04:31:32;35;24;16
55549;PMS7003;41397;49.972;18.944;2024-02-21T04:34:34;34;26;19
55549;PMS7003;41397;49.972;18.944;2024-02-21T04:37:35;29;27;20
55549;PMS7003;41397;49.972;18.944;2024-02-21T04:40:39;31;28;18
55549;PMS7003;41397;49.972;18.944;2024-02-21T04:43:40;28;26;18
55549;PMS7003;41397;49.972;18.944;2024-02-21T04:46:44;20;19;15
55549;PMS7003;41397;49.972;18.944;2024-02-21T04:49:45;19;17;12
55549;PMS7003;41397;49.972;18.944;2024-02-21T04:52:47;19;19;14
55549;PMS7003;41397;49.972;18.944;2024-02-21T04:55:49;16;16;9
55549;PMS7003;41397;49.972;18.944;2024-02-21T04:58:50;13;13;10
55549;PMS7003;41397;49.972;18.944;2024-02-21T05:01:52;17;17;13
55549;PMS7003;41397;49.972;18.944;2024-02-21T05:04:55;21;21;15
55549;PMS7003;41397;49.972;18.944;2024-02-21T05:07:57;14;14;12
55549;PMS7003;41397;49.972;18.944;2024-02-21T05:10:58;15;15;11
55549;PMS7003;41397;49.972;18.944;2024-02-21T05:13:59;14;14;10
55549;PMS7003;41397;49.972;18.944;2024-02-21T05:17:03;17;17;13
55549;PMS7003;41397;49.972;18.944;2024-02-21T05:20:06;17;17;11
55549;PMS7003;41397;49.972;18.944;2024-02-21T05:23:07;19;19;13
55549;PMS7003;41397;49.972;18.944;2024-02-21T05:26:09;13;13;10
55549;PMS7003;41397;49.972;18.944;2024-02-21T05:29:11;18;18;13
55549;PMS7003;41397;49.972;18.944;2024-02-21T05:32:12;16;16;11
55549;PMS7003;41397;49.972;18.944;2024-02-21T05:35:13;19;19;14
55549;PMS7003;41397;49.972;18.944;2024-02-21T05:38:14;22;22;17
55549;PMS7003;41397;49.972;18.944;2024-02-21T05:41:19;31;28;20
55549;PMS7003;41397;49.972;18.944;2024-02-21T05:44:20;21;21;14
55549;PMS7003;41397;49.972;18.944;2024-02-21T05:47:22;19;19;11
55549;PMS7003;41397;49.972;18.944;2024-02-21T05:50:23;18;18;13
55549;PMS7003;41397;49.972;18.944;2024-02-21T05:53:27;16;16;9
55549;PMS7003;41397;49.972;18.944;2024-02-21T05:56:28;20;20;15
55549;PMS7003;41397;49.972;18.944;2024-02-21T05:59:29;19;19;15
55549;PMS7003;41397;49.972;18.944;2024-02-21T06:02:31;20;20;14
55549;PMS7003;41397;49.972;18.944;2024-02-21T06:05:38;15;15;10
55549;PMS7003;41397;49.972;18.944;2024-02-21T06:08:39;16;16;10
55549;PMS7003;41397;49.972;18.944;2024-02-21T06:11:41;17;16;15
55549;PMS7003;41397;49.972;18.944;2024-02-21T06:14:42;13;13;9
55549;PMS7003;41397;49.972;18.944;2024-02-21T06:17:43;17;17;11
55549;PMS7003;41397;49.972;18.944;2024-02-21T06:20:45;14;12;7
55549;PMS7003;41397;49.972;18.944;2024-02-21T06:23:46;14;14;9
55549;PMS7003;41397;49.972;18.944;2024-02-21T06:26:47;13;12;6
55549;PMS7003;41397;49.972;18.944;2024-02-21T06:29:51;11;11;9
55549;PMS7003;41397;49.972;18.944;2024-02-21T06:32:52;16;16;10
55549;PMS7003;41397;49.972;18.944;2024-02-21T06:35:56;8;8;7
55549;PMS7003;41397;49.972;18.944;2024-02-21T06:38:58;6;6;4
55549;PMS7003;41397;49.972;18.944;2024-02-21T06:41:59;9;9;7
55549;PMS7003;41397;49.972;18.944;2024-02-21T06:45:00;11;11;7
55549;PMS7003;41397;49.972;18.944;2024-02-21T06:48:01;9;9;5
55549;PMS7003;41397;49.972;18.944;2024-02-21T06:51:03;7;7;6
55549;PMS7003;41397;49.972;18.944;2024-02-21T06:54:07;8;8;4
55549;PMS7003;41397;49.972;18.944;2024-02-21T06:57:10;7;7;6
55549;PMS7003;41397;49.972;18.944;2024-02-21T07:00:11;10;10;10
55549;PMS7003;41397;49.972;18.944;2024-02-21T07:03:13;11;11;8
55549;PMS7003;41397;49.972;18.944;2024-02-21T07:06:15;11;11;9
55549;PMS7003;41397;49.972;18.944;2024-02-21T07:09:16;10;10;9
55549;PMS7003;41397;49.972;18.944;2024-02-21T07:12:17;9;9;7
55549;PMS7003;41397;49.972;18.944;2024-02-21T07:15:19;9;9;8
55549;PMS7003;41397;49.972;18.944;2024-02-21T07:18:23;11;11;9
55549;PMS7003;41397;49.972;18.944;2024-02-21T07:21:26;13;12;8
55549;PMS7003;41397;49.972;18.944;2024-02-21T07:24:27;10;10;6
55549;PMS7003;41397;49.972;18.944;2024-02-21T07:27:28;11;11;7
55549;PMS7003;41397;49.972;18.944;2024-02-21T07:30:33;7;7;6
55549;PMS7003;41397;49.972;18.944;2024-02-21T07:33:34;9;8;7
55549;PMS7003;41397;49.972;18.944;2024-02-21T07:36:36;6;6;5
55549;PMS7003;41397;49.972;18.944;2024-02-21T07:39:40;6;6;4
55549;PMS7003;41397;49.972;18.944;2024-02-21T07:42:42;3;3;2
55549;PMS7003;41397;49.972;18.944;2024-02-21T07:45:44;6;6;5
55549;PMS7003;41397;49.972;18.944;2024-02-21T07:48:45;9;9;6
55549;PMS7003;41397;49.972;18.944;2024-02-21T07:51:47;11;11;5
55549;PMS7003;41397;49.972;18.944;2024-02-21T07:54:48;8;8;4
55549;PMS7003;41397;49.972;18.944;2024-02-21T07:57:49;8;7;4
55549;PMS7003;41397;49.972;18.944;2024-02-21T08:00:50;7;6;4
55549;PMS7003;41397;49.972;18.944;2024-02-21T08:03:51;7;7;5
55549;PMS7003;41397;49.972;18.944;2024-02-21T08:06:54;10;10;7
55549;PMS7003;41397;49.972;18.944;2024-02-21T08:10:04;8;8;5
55549;PMS7003;41397;49.972;18.944;2024-02-21T08:13:08;5;5;4
55549;PMS7003;41397;49.972;18.944;2024-02-21T08:16:09;8;8;4
55549;PMS7003;41397;49.972;18.944;2024-02-21T08:19:10;6;6;6
55549;PMS7003;41397;49.972;18.944;2024-02-21T08:22:12;6;6;6
55549;PMS7003;41397;49.972;18.944;2024-02-21T08:25:13;7;7;6
55549;PMS7003;41397;49.972;18.944;2024-02-21T08:28:14;6;6;3
55549;PMS7003;41397;49.972;18.944;2024-02-21T08:31:21;6;6;4
55549;PMS7003;41397;49.972;18.944;2024-02-21T08:34:30;7;7;7
55549;PMS7003;41397;49.972;18.944;2024-02-21T08:37:34;5;5;4
55549;PMS7003;41397;49.972;18.944;2024-02-21T08:40:35;7;7;5
55549;PMS7003;41397;49.972;18.944;2024-02-21T08:43:37;8;8;6
55549;PMS7003;41397;49.972;18.944;2024-02-21T08:46:38;6;6;4
55549;PMS7003;41397;49.972;18.944;2024-02-21T08:49:40;8;8;6
55549;PMS7003;41397;49.972;18.944;2024-02-21T08:52:42;6;6;5
55549;PMS7003;41397;49.972;18.944;2024-02-21T08:55:43;8;8;5
55549;PMS7003;41397;49.972;18.944;2024-02-21T08:58:46;7;7;5
55549;PMS7003;41397;49.972;18.944;2024-02-21T09:01:47;11;11;9
55549;PMS7003;41397;49.972;18.944;2024-02-21T09:04:48;7;7;6
55549;PMS7003;41397;49.972;18.944;2024-02-21T09:07:49;7;7;4
55549;PMS7003;41397;49.972;18.944;2024-02-21T09:10:54;5;5;3
55549;PMS7003;41397;49.972;18.944;2024-02-21T09:13:55;7;7;5
55549;PMS7003;41397;49.972;18.944;2024-02-21T09:16:56;8;8;7
55549;PMS7003;41397;49.972;18.944;2024-02-21T09:19:57;8;8;4
55549;PMS7003;41397;49.972;18.944;2024-02-21T09:23:03;8;8;5
55549;PMS7003;41397;49.972;18.944;2024-02-21T09:26:04;7;7;5
55549;PMS7003;41397;49.972;18.944;2024-02-21T09:29:05;6;6;4
55549;PMS7003;41397;49.972;18.944;2024-02-21T09:32:08;9;9;5
55549;PMS7003;41397;49.972;18.944;2024-02-21T09:35:10;3;3;3
55549;PMS7003;41397;49.972;18.944;2024-02-21T09:38:13;6;6;4
55549;PMS7003;41397;49.972;18.944;2024-02-21T09:41:18;7;7;6
55549;PMS7003;41397;49.972;18.944;2024-02-21T09:44:24;4;4;3
55549;PMS7003;41397;49.972;18.944;2024-02-21T09:47:36;4;4;3
55549;PMS7003;41397;49.972;18.944;2024-02-21T09:50:46;5;5;4
55549;PMS7003;41397;49.972;18.944;2024-02-21T09:53:55;4;4;3
55549;PMS7003;41397;49.972;18.944;2024-02-21T09:56:59;7;7;5
55549;PMS7003;41397;49.972;18.944;2024-02-21T10:00:04;5;5;3
55549;PMS7003;41397;49.972;18.944;2024-02-21T10:03:08;12;10;8
55549;PMS7003;41397;49.972;18.944;2024-02-21T10:06:09;2;2;2
55549;PMS7003;41397;49.972;18.944;2024-02-21T10:12:24;5;5;5
55549;PMS7003;41397;49.972;18.944;2024-02-21T10:15:25;4;4;2
55549;PMS7003;41397;49.972;18.944;2024-02-21T10:18:26;5;5;3
55549;PMS7003;41397;49.972;18.944;2024-02-21T10:21:27;4;4;3
55549;PMS7003;41397;49.972;18.944;2024-02-21T10:24:36;3;3;2
55549;PMS7003;41397;49.972;18.944;2024-02-21T10:27:44;6;6;5
55549;PMS7003;41397;49.972;18.944;2024-02-21T10:37:06;7;7;5
55549;PMS7003;41397;49.972;18.944;2024-02-21T10:40:09;4;4;3
55549;PMS7003;41397;49.972;18.944;2024-02-21T10:43:12;5;5;4
55549;PMS7003;41397;49.972;18.944;2024-02-21T10:46:17;5;5;4
55549;PMS7003;41397;49.972;18.944;2024-02-21T10:49:22;5;5;4
55549;PMS7003;41397;49.972;18.944;2024-02-21T10:55:51;1;1;1
55549;PMS7003;41397;49.972;18.944;2024-02-21T10:59:01;7;6;3
55549;PMS7003;41397;49.972;18.944;2024-02-21T11:02:03;2;2;2
55549;PMS7003;41397;49.972;18.944;2024-02-21T11:05:04;5;5;3
55549;PMS7003;41397;49.972;18.944;2024-02-21T11:08:07;4;4;3
55549;PMS7003;41397;49.972;18.944;2024-02-21T11:11:08;3;3;2
55549;PMS7003;41397;49.972;18.944;2024-02-21T11:14:20;5;5;3
55549;PMS7003;41397;49.972;18.944;2024-02-21T11:17:21;6;6;4
55549;PMS7003;41397;49.972;18.944;2024-02-21T11:23:37;7;7;5
55549;PMS7003;41397;49.972;18.944;2024-02-21T11:26:39;5;5;2
55549;PMS7003;41397;49.972;18.944;2024-02-21T11:29:45;5;5;2
55549;PMS7003;41397;49.972;18.944;2024-02-21T11:32:48;4;4;2
55549;PMS7003;41397;49.972;18.944;2024-02-21T11:35:49;5;5;3
55549;PMS7003;41397;49.972;18.944;2024-02-21T11:38:53;5;5;4
55549;PMS7003;41397;49.972;18.944;2024-02-21T11:45:03;4;4;3
55549;PMS7003;41397;49.972;18.944;2024-02-21T11:48:07;4;4;3
55549;PMS7003;41397;49.972;18.944;2024-02-21T11:51:09;4;4;3
55549;PMS7003;41397;49.972;18.944;2024-02-21T11:54:10;4;4;4
55549;PMS7003;41397;49.972;18.944;2024-02-21T11:57:17;8;8;6
55549;PMS7003;41397;49.972;18.944;2024-02-21T12:00:19;4;4;1
55549;PMS7003;41397;49.972;18.944;2024-02-21T12:03:21;2;2;0
55549;PMS7003;41397;49.972;18.944;2024-02-21T12:06:22;5;5;4
55549;PMS7003;41397;49.972;18.944;2024-02-21T12:09:24;7;5;4
55549;PMS7003;41397;49.972;18.944;2024-02-21T12:12:26;4;4;3
55549;PMS7003;41397;49.972;18.944;2024-02-21T12:15:29;9;9;6
55549;PMS7003;41397;49.972;18.944;2024-02-21T12:18:32;8;8;6
55549;PMS7003;41397;49.972;18.944;2024-02-21T12:21:33;7;7;4
55549;PMS7003;41397;49.972;18.944;2024-02-21T12:24:37;5;5;4
55549;PMS7003;41397;49.972;18.944;2024-02-21T12:27:39;5;5;4
55549;PMS7003;41397;49.972;18.944;2024-02-21T12:30:41;10;10;6
55549;PMS7003;41397;49.972;18.944;2024-02-21T12:33:43;9;9;4
55549;PMS7003;41397;49.972;18.944;2024-02-21T12:36:44;11;11;8
55549;PMS7003;41397;49.972;18.944;2024-02-21T12:39:49;5;5;4
55549;PMS7003;41397;49.972;18.944;2024-02-21T12:45:07;8;8;6
55549;PMS7003;41397;49.972;18.944;2024-02-21T12:48:09;9;9;7
55549;PMS7003;41397;49.972;18.944;2024-02-21T12:51:10;11;11;6
55549;PMS7003;41397;49.972;18.944;2024-02-21T12:54:14;10;10;5
55549;PMS7003;41397;49.972;18.944;2024-02-21T12:57:16;9;9;6
55549;PMS7003;41397;49.972;18.944;2024-02-21T13:00:17;10;7;5
55549;PMS7003;41397;49.972;18.944;2024-02-21T13:03:18;4;4;4
55549;PMS7003;41397;49.972;18.944;2024-02-21T13:06:23;7;7;4
55549;PMS7003;41397;49.972;18.944;2024-02-21T13:09:25;9;9;7
55549;PMS7003;41397;49.972;18.944;2024-02-21T13:12:26;13;13;7
55549;PMS7003;41397;49.972;18.944;2024-02-21T13:15:29;10;10;7
55549;PMS7003;41397;49.972;18.944;2024-02-21T13:18:30;6;6;6
55549;PMS7003;41397;49.972;18.944;2024-02-21T13:21:33;8;8;6
55549;PMS7003;41397;49.972;18.944;2024-02-21T13:24:34;12;12;9
55549;PMS7003;41397;49.972;18.944;2024-02-21T13:27:36;6;6;5
55549;PMS7003;41397;49.972;18.944;2024-02-21T13:30:38;15;14;9
55549;PMS7003;41397;49.972;18.944;2024-02-21T13:33:39;12;12;8
55549;PMS7003;41397;49.972;18.944;2024-02-21T13:36:40;14;14;8
55549;PMS7003;41397;49.972;18.944;2024-02-21T13:39:42;14;14;7
55549;PMS7003;41397;49.972;18.944;2024-02-21T13:42:46;14;14;12
55549;PMS7003;41397;49.972;18.944;2024-02-21T13:49:11;14;14;8
55549;PMS7003;41397;49.972;18.944;2024-02-21T13:52:12;18;18;11
55549;PMS7003;41397;49.972;18.944;2024-02-21T13:55:14;13;13;12
55549;PMS7003;41397;49.972;18.944;2024-02-21T13:58:16;14;14;11
55549;PMS7003;41397;49.972;18.944;2024-02-21T14:01:18;12;12;8
55549;PMS7003;41397;49.972;18.944;2024-02-21T14:04:19;13;13;9
55549;PMS7003;41397;49.972;18.944;2024-02-21T14:07:20;18;18;11
55549;PMS7003;41397;49.972;18.944;2024-02-21T14:10:22;13;11;9
55549;PMS7003;41397;49.972;18.944;2024-02-21T14:13:24;12;12;8
55549;PMS7003;41397;49.972;18.944;2024-02-21T14:16:25;15;13;8
55549;PMS7003;41397;49.972;18.944;2024-02-21T14:19:26;10;10;8
55549;PMS7003;41397;49.972;18.944;2024-02-21T14:22:27;15;12;9
55549;PMS7003;41397;49.972;18.944;2024-02-21T14:25:28;11;11;10
55549;PMS7003;41397;49.972;18.944;2024-02-21T14:28:30;13;13;8
55549;PMS7003;41397;49.972;18.944;2024-02-21T14:31:32;5;5;4
55549;PMS7003;41397;49.972;18.944;2024-02-21T14:34:33;8;8;6
55549;PMS7003;41397;49.972;18.944;2024-02-21T14:37:34;10;10;6
55549;PMS7003;41397;49.972;18.944;2024-02-21T14:40:35;9;9;8
55549;PMS7003;41397;49.972;18.944;2024-02-21T14:43:39;8;8;5
55549;PMS7003;41397;49.972;18.944;2024-02-21T14:46:40;2;2;1
55549;PMS7003;41397;49.972;18.944;2024-02-21T14:49:41;6;6;4
55549;PMS7003;41397;49.972;18.944;2024-02-21T14:52:43;7;7;6
55549;PMS7003;41397;49.972;18.944;2024-02-21T14:55:46;8;8;7
55549;PMS7003;41397;49.972;18.944;2024-02-21T14:58:48;8;8;7
55549;PMS7003;41397;49.972;18.944;2024-02-21T15:01:49;9;9;7
55549;PMS7003;41397;49.972;18.944;2024-02-21T15:04:50;4;4;4
55549;PMS7003;41397;49.972;18.944;2024-02-21T15:07:55;5;5;4
55549;PMS7003;41397;49.972;18.944;2024-02-21T15:10:58;10;8;7
55549;PMS7003;41397;49.972;18.944;2024-02-21T15:13:59;11;11;8
55549;PMS7003;41397;49.972;18.944;2024-02-21T15:17:00;9;9;5
55549;PMS7003;41397;49.972;18.944;2024-02-21T15:20:03;6;6;5
55549;PMS7003;41397;49.972;18.944;2024-02-21T15:23:08;7;7;5
55549;PMS7003;41397;49.972;18.944;2024-02-21T15:26:09;9;9;7
55549;PMS7003;41397;49.972;18.944;2024-02-21T15:29:10;10;10;10
55549;PMS7003;41397;49.972;18.944;2024-02-21T15:32:11;9;9;6
55549;PMS7003;41397;49.972;18.944;2024-02-21T15:35:12;7;7;5
55549;PMS7003;41397;49.972;18.944;2024-02-21T15:38:14;10;9;6
55549;PMS7003;41397;49.972;18.944;2024-02-21T15:41:15;16;16;13
55549;PMS7003;41397;49.972;18.944;2024-02-21T15:44:18;19;19;13
55549;PMS7003;41397;49.972;18.944;2024-02-21T15:47:21;13;13;9
55549;PMS7003;41397;49.972;18.944;2024-02-21T15:50:24;13;13;10
55549;PMS7003;41397;49.972;18.944;2024-02-21T15:53:29;18;18;13
55549;PMS7003;41397;49.972;18.944;2024-02-21T15:56:30;11;11;7
55549;PMS7003;41397;49.972;18.944;2024-02-21T15:59:33;12;12;10
55549;PMS7003;41397;49.972;18.944;2024-02-21T16:02:34;15;15;11
55549;PMS7003;41397;49.972;18.944;2024-02-21T16:05:35;12;12;9
55549;PMS7003;41397;49.972;18.944;2024-02-21T16:08:36;19;19;12
55549;PMS7003;41397;49.972;18.944;2024-02-21T16:11:41;13;13;10
55549;PMS7003;41397;49.972;18.944;2024-02-21T16:14:42;28;26;18
55549;PMS7003;41397;49.972;18.944;2024-02-21T16:17:44;28;22;14
55549;PMS7003;41397;49.972;18.944;2024-02-21T16:20:45;13;13;10
55549;PMS7003;41397;49.972;18.944;2024-02-21T16:23:48;12;12;8
55549;PMS7003;41397;49.972;18.944;2024-02-21T16:26:49;12;12;11
55549;PMS7003;41397;49.972;18.944;2024-02-21T16:29:50;19;19;13
55549;PMS7003;41397;49.972;18.944;2024-02-21T16:32:51;15;15;7
55549;PMS7003;41397;49.972;18.944;2024-02-21T16:35:55;14;14;10
55549;PMS7003;41397;49.972;18.944;2024-02-21T16:38:57;22;18;13
55549;PMS7003;41397;49.972;18.944;2024-02-21T16:42:01;14;14;13
55549;PMS7003;41397;49.972;18.944;2024-02-21T16:45:04;22;21;15
55549;PMS7003;41397;49.972;18.944;2024-02-21T16:48:08;25;25;16
55549;PMS7003;41397;49.972;18.944;2024-02-21T16:51:09;14;14;10
55549;PMS7003;41397;49.972;18.944;2024-02-21T16:54:10;12;12;9
55549;PMS7003;41397;49.972;18.944;2024-02-21T16:57:12;19;19;13
55549;PMS7003;41397;49.972;18.944;2024-02-21T17:00:13;18;18;12
55549;PMS7003;41397;49.972;18.944;2024-02-21T17:03:15;20;20;14
55549;PMS7003;41397;49.972;18.944;2024-02-21T17:06:20;21;19;10
55549;PMS7003;41397;49.972;18.944;2024-02-21T17:09:21;24;15;12
55549;PMS7003;41397;49.972;18.944;2024-02-21T17:12:23;18;18;15
55549;PMS7003;41397;49.972;18.944;2024-02-21T17:15:24;13;13;8
55549;PMS7003;41397;49.972;18.944;2024-02-21T17:18:25;33;30;18
55549;PMS7003;41397;49.972;18.944;2024-02-21T17:21:27;38;31;19
55549;PMS7003;41397;49.972;18.944;2024-02-21T17:24:31;39;29;18
55549;PMS7003;41397;49.972;18.944;2024-02-21T17:27:32;22;22;17
55549;PMS7003;41397;49.972;18.944;2024-02-21T17:30:33;23;22;15
55549;PMS7003;41397;49.972;18.944;2024-02-21T17:33:36;32;28;18
55549;PMS7003;41397;49.972;18.944;2024-02-21T17:36:37;19;19;14
55549;PMS7003;41397;49.972;18.944;2024-02-21T17:39:39;19;18;11
55549;PMS7003;41397;49.972;18.944;2024-02-21T17:42:40;29;26;16
55549;PMS7003;41397;49.972;18.944;2024-02-21T17:45:42;25;21;15
55549;PMS7003;41397;49.972;18.944;2024-02-21T17:48:43;18;18;14
55549;PMS7003;41397;49.972;18.944;2024-02-21T17:51:44;26;22;16
55549;PMS7003;41397;49.972;18.944;2024-02-21T17:54:45;20;20;14
55549;PMS7003;41397;49.972;18.944;2024-02-21T17:57:47;17;17;9
55549;PMS7003;41397;49.972;18.944;2024-02-21T18:00:50;35;29;16
55549;PMS7003;41397;49.972;18.944;2024-02-21T18:03:54;30;28;17
55549;PMS7003;41397;49.972;18.944;2024-02-21T18:06:55;42;36;23
55549;PMS7003;41397;49.972;18.944;2024-02-21T18:09:56;36;32;19
55549;PMS7003;41397;49.972;18.944;2024-02-21T18:12:58;35;28;18
55549;PMS7003;41397;49.972;18.944;2024-02-21T18:16:05;22;22;15
55549;PMS7003;41397;49.972;18.944;2024-02-21T18:19:09;27;26;18
55549;PMS7003;41397;49.972;18.944;2024-02-21T18:22:10;19;19;16
55549;PMS7003;41397;49.972;18.944;2024-02-21T18:25:11;22;22;16
55549;PMS7003;41397;49.972;18.944;2024-02-21T18:28:12;23;23;15
55549;PMS7003;41397;49.972;18.944;2024-02-21T18:31:14;19;19;16
55549;PMS7003;41397;49.972;18.944;2024-02-21T18:34:15;15;15;13
55549;PMS7003;41397;49.972;18.944;2024-02-21T18:37:16;29;28;19
55549;PMS7003;41397;49.972;18.944;2024-02-21T18:40:18;18;18;13
55549;PMS7003;41397;49.972;18.944;2024-02-21T18:43:19;24;24;16
55549;PMS7003;41397;49.972;18.944;2024-02-21T18:46:21;24;21;12
55549;PMS7003;41397;49.972;18.944;2024-02-21T18:49:22;26;26;15
55549;PMS7003;41397;49.972;18.944;2024-02-21T18:52:23;14;14;11
55549;PMS7003;41397;49.972;18.944;2024-02-21T18:55:24;23;23;14
55549;PMS7003;41397;49.972;18.944;2024-02-21T18:58:29;24;21;15
55549;PMS7003;41397;49.972;18.944;2024-02-21T19:01:30;24;20;13
55549;PMS7003;41397;49.972;18.944;2024-02-21T19:04:32;19;19;14
55549;PMS7003;41397;49.972;18.944;2024-02-21T19:07:33;22;21;14
55549;PMS7003;41397;49.972;18.944;2024-02-21T19:10:37;28;21;15
55549;PMS7003;41397;49.972;18.944;2024-02-21T19:13:38;23;23;16
55549;PMS7003;41397;49.972;18.944;2024-02-21T19:16:39;26;23;15
55549;PMS7003;41397;49.972;18.944;2024-02-21T19:19:41;18;18;13
55549;PMS7003;41397;49.972;18.944;2024-02-21T19:22:47;19;19;14
55549;PMS7003;41397;49.972;18.944;2024-02-21T19:25:48;15;12;8
55549;PMS7003;41397;49.972;18.944;2024-02-21T19:28:49;12;12;9
55549;PMS7003;41397;49.972;18.944;2024-02-21T19:31:50;6;6;6
55549;PMS7003;41397;49.972;18.944;2024-02-21T19:34:53;30;28;16
55549;PMS7003;41397;49.972;18.944;2024-02-21T19:37:54;30;27;16
55549;PMS7003;41397;49.972;18.944;2024-02-21T19:40:57;29;28;16
55549;PMS7003;41397;49.972;18.944;2024-02-21T19:43:58;23;23;15
55549;PMS7003;41397;49.972;18.944;2024-02-21T19:47:01;17;17;12
55549;PMS7003;41397;49.972;18.944;2024-02-21T19:50:05;15;15;12
55549;PMS7003;41397;49.972;18.944;2024-02-21T19:53:07;14;14;12
55549;PMS7003;41397;49.972;18.944;2024-02-21T19:56:08;14;12;9
55549;PMS7003;41397;49.972;18.944;2024-02-21T19:59:15;10;10;7
55549;PMS7003;41397;49.972;18.944;2024-02-21T20:02:16;8;8;4